Time,TemperatureF,DewpointF,PressureIn,WindDirection,WindDirectionDegrees,WindSpeedMPH,WindSpeedGustMPH,Humidity,HourlyPrecipIn,Conditions,Clouds,dailyrainin,SolarRadiationWatts/m^2,SoftwareType,DateUTC
2013-04-02 00:22:00,37.0,19.0,-100.00,SE,129,7.0,11.0,48,0.00,,,0.00,0.000000,,2013-04-02 06:22:00,
2013-04-02 00:32:00,37.0,19.0,-100.00,SE,129,7.0,11.0,48,0.00,,,0.00,0.000000,,2013-04-02 06:32:00,
2013-04-02 00:42:00,37.0,19.0,-100.00,SE,129,7.0,11.0,48,0.00,,,0.00,0.000000,,2013-04-02 06:42:00,
2013-04-02 00:52:00,37.0,19.0,-100.00,SE,129,7.0,11.0,48,0.00,,,0.00,0.000000,,2013-04-02 06:52:00,
2013-04-02 01:32:00,35.0,21.0,-100.00,SE,132,4.0,8.0,57,0.00,,,0.00,0.000000,,2013-04-02 07:32:00,
2013-04-02 01:42:00,35.0,21.0,-100.00,SE,132,4.0,8.0,57,0.00,,,0.00,0.000000,,2013-04-02 07:42:00,
2013-04-02 01:52:00,35.0,21.0,-100.00,SE,132,4.0,8.0,57,0.00,,,0.00,0.000000,,2013-04-02 07:52:00,
2013-04-02 02:32:00,33.0,21.0,-100.00,SE,141,4.0,6.0,61,0.00,,,0.00,0.000000,,2013-04-02 08:32:00,
2013-04-02 02:42:00,33.0,21.0,-100.00,SE,141,4.0,6.0,61,0.00,,,0.00,0.000000,,2013-04-02 08:42:00,
2013-04-02 02:52:00,33.0,21.0,-100.00,SE,141,4.0,6.0,61,0.00,,,0.00,0.000000,,2013-04-02 08:52:00,
2013-04-02 03:32:00,32.0,20.0,-100.00,SE,133,4.0,6.0,62,0.00,,,0.00,0.000000,,2013-04-02 09:32:00,
2013-04-02 03:43:00,32.0,20.0,-100.00,SE,133,4.0,6.0,62,0.00,,,0.00,0.000000,,2013-04-02 09:43:00,
2013-04-02 03:52:00,32.0,20.0,-100.00,SE,133,4.0,6.0,62,0.00,,,0.00,0.000000,,2013-04-02 09:52:00,
2013-04-02 04:23:00,34.0,22.0,-100.00,ESE,123,4.0,6.0,60,0.00,,,0.00,0.000000,,2013-04-02 10:23:00,
2013-04-02 04:33:00,34.0,22.0,-100.00,ESE,123,4.0,6.0,60,0.00,,,0.00,0.000000,,2013-04-02 10:33:00,
2013-04-02 04:42:00,34.0,22.0,-100.00,ESE,123,4.0,6.0,60,0.00,,,0.00,0.000000,,2013-04-02 10:42:00,
2013-04-02 04:52:00,34.0,22.0,-100.00,ESE,123,4.0,6.0,60,0.00,,,0.00,0.000000,,2013-04-02 10:52:00,
2013-04-02 05:32:00,29.0,22.0,-100.00,SSE,158,3.0,5.0,76,0.00,,,0.00,0.000000,,2013-04-02 11:32:00,
2013-04-02 05:42:00,29.0,22.0,-100.00,SSE,158,3.0,5.0,76,0.00,,,0.00,0.000000,,2013-04-02 11:42:00,
2013-04-02 05:52:00,29.0,22.0,-100.00,SSE,158,3.0,5.0,76,0.00,,,0.00,0.000000,,2013-04-02 11:52:00,
2013-04-02 06:22:00,27.0,21.0,-100.00,South,171,2.0,4.0,79,0.00,,,0.00,0.000000,,2013-04-02 12:22:00,
2013-04-02 06:32:00,27.0,21.0,-100.00,South,171,2.0,4.0,79,0.00,,,0.00,0.000000,,2013-04-02 12:32:00,
2013-04-02 06:42:00,27.0,21.0,-100.00,South,171,2.0,4.0,79,0.00,,,0.00,0.000000,,2013-04-02 12:42:00,
2013-04-02 06:52:00,27.0,21.0,-100.00,South,171,2.0,4.0,79,0.00,,,0.00,0.000000,,2013-04-02 12:52:00,
2013-04-02 07:22:00,28.0,22.0,-100.00,SSE,165,2.0,5.0,79,0.00,,,0.00,2.000000,,2013-04-02 13:22:00,
2013-04-02 07:32:00,28.0,22.0,-100.00,SSE,165,2.0,5.0,79,0.00,,,0.00,2.000000,,2013-04-02 13:32:00,
2013-04-02 07:42:00,28.0,22.0,-100.00,SSE,165,2.0,5.0,79,0.00,,,0.00,2.000000,,2013-04-02 13:42:00,
2013-04-02 07:52:00,28.0,22.0,-100.00,SSE,165,2.0,5.0,79,0.00,,,0.00,2.000000,,2013-04-02 13:52:00,
2013-04-02 08:32:00,31.0,24.0,-100.00,ESE,120,4.0,6.0,76,0.00,,,0.00,93.000000,,2013-04-02 14:32:00,
2013-04-02 08:42:00,31.0,24.0,-100.00,ESE,120,4.0,6.0,76,0.00,,,0.00,93.000000,,2013-04-02 14:42:00,
2013-04-02 08:52:00,31.0,24.0,-100.00,ESE,120,4.0,6.0,76,0.00,,,0.00,93.000000,,2013-04-02 14:52:00,
2013-04-02 09:33:00,38.0,26.0,-100.00,South,187,4.0,6.0,61,0.00,,,0.00,282.000000,,2013-04-02 15:33:00,
2013-04-02 09:42:00,38.0,26.0,-100.00,South,187,4.0,6.0,61,0.00,,,0.00,282.000000,,2013-04-02 15:42:00,
2013-04-02 09:54:00,38.0,26.0,-100.00,South,187,4.0,6.0,61,0.00,,,0.00,282.000000,,2013-04-02 15:54:00,
2013-04-02 10:24:00,46.0,27.0,-100.00,SW,220,3.0,5.0,47,0.00,,,0.00,462.000000,,2013-04-02 16:24:00,
2013-04-02 10:34:00,46.0,27.0,-100.00,SW,220,3.0,5.0,47,0.00,,,0.00,462.000000,,2013-04-02 16:34:00,
2013-04-02 10:43:00,46.0,27.0,-100.00,SW,220,3.0,5.0,47,0.00,,,0.00,462.000000,,2013-04-02 16:43:00,
2013-04-02 10:52:00,46.0,27.0,-100.00,SW,220,3.0,5.0,47,0.00,,,0.00,462.000000,,2013-04-02 16:52:00,
2013-04-02 11:24:00,51.0,27.0,-100.00,WSW,239,3.0,7.0,39,0.00,,,0.00,617.000000,,2013-04-02 17:24:00,
2013-04-02 11:34:00,51.0,27.0,-100.00,WSW,239,3.0,7.0,39,0.00,,,0.00,617.000000,,2013-04-02 17:34:00,
2013-04-02 11:43:00,51.0,27.0,-100.00,WSW,239,3.0,7.0,39,0.00,,,0.00,617.000000,,2013-04-02 17:43:00,
2013-04-02 11:53:00,51.0,27.0,-100.00,WSW,239,3.0,7.0,39,0.00,,,0.00,617.000000,,2013-04-02 17:53:00,
2013-04-02 12:23:00,54.0,27.0,-100.00,NNW,327,5.0,8.0,35,0.00,,,0.00,732.000000,,2013-04-02 18:23:00,
2013-04-02 12:33:00,54.0,27.0,-100.00,NNW,327,5.0,8.0,35,0.00,,,0.00,732.000000,,2013-04-02 18:33:00,
2013-04-02 12:42:00,54.0,27.0,-100.00,NNW,327,5.0,8.0,35,0.00,,,0.00,732.000000,,2013-04-02 18:42:00,
2013-04-02 12:53:00,54.0,27.0,-100.00,NNW,327,5.0,8.0,35,0.00,,,0.00,732.000000,,2013-04-02 18:53:00,
2013-04-02 13:33:00,60.0,28.0,-100.00,NW,305,4.0,11.0,29,0.00,,,0.00,797.000000,,2013-04-02 19:33:00,
2013-04-02 13:45:00,60.0,28.0,-100.00,NW,305,4.0,11.0,29,0.00,,,0.00,797.000000,,2013-04-02 19:45:00,
2013-04-02 13:53:00,60.0,28.0,-100.00,NW,305,4.0,11.0,29,0.00,,,0.00,797.000000,,2013-04-02 19:53:00,
2013-04-02 14:22:00,64.0,23.0,-100.00,South,186,7.0,10.0,21,0.00,,,0.00,807.000000,,2013-04-02 20:22:00,
2013-04-02 14:33:00,64.0,23.0,-100.00,South,186,7.0,10.0,21,0.00,,,0.00,807.000000,,2013-04-02 20:33:00,
2013-04-02 14:43:00,64.0,23.0,-100.00,South,186,7.0,10.0,21,0.00,,,0.00,807.000000,,2013-04-02 20:43:00,
2013-04-02 14:52:00,64.0,23.0,-100.00,South,186,7.0,10.0,21,0.00,,,0.00,807.000000,,2013-04-02 20:52:00,
2013-04-02 16:33:00,67.0,23.0,-100.00,South,179,9.0,12.0,19,-99.99,,,0.00,657.000000,,2013-04-02 22:33:00,
2013-04-02 16:43:00,67.0,23.0,-100.00,South,179,9.0,12.0,19,-99.99,,,0.00,657.000000,,2013-04-02 22:43:00,
2013-04-02 16:53:00,67.0,23.0,-100.00,South,179,9.0,12.0,19,-99.99,,,0.00,657.000000,,2013-04-02 22:53:00,
2013-04-02 17:33:00,68.0,23.0,-100.00,South,175,6.0,10.0,18,0.00,,,0.00,511.000000,,2013-04-02 23:33:00,
2013-04-02 17:42:00,68.0,23.0,-100.00,South,175,6.0,10.0,18,0.00,,,0.00,511.000000,,2013-04-02 23:42:00,
2013-04-02 17:52:00,68.0,23.0,-100.00,South,175,6.0,10.0,18,0.00,,,0.00,511.000000,,2013-04-02 23:52:00,
2013-04-02 18:23:00,67.0,22.0,-100.00,SSE,150,6.0,10.0,18,0.00,,,0.00,336.000000,,2013-04-03 00:23:00,
2013-04-02 18:32:00,67.0,22.0,-100.00,SSE,150,6.0,10.0,18,0.00,,,0.00,336.000000,,2013-04-03 00:32:00,
2013-04-02 18:44:00,67.0,22.0,-100.00,SSE,150,6.0,10.0,18,0.00,,,0.00,336.000000,,2013-04-03 00:44:00,
2013-04-02 18:53:00,67.0,22.0,-100.00,SSE,150,6.0,10.0,18,0.00,,,0.00,336.000000,,2013-04-03 00:53:00,
2013-04-02 19:33:00,66.0,21.0,-100.00,SE,134,3.0,9.0,18,0.00,,,0.00,156.000000,,2013-04-03 01:33:00,
2013-04-02 19:42:00,66.0,21.0,-100.00,SE,134,3.0,9.0,18,0.00,,,0.00,156.000000,,2013-04-03 01:42:00,
2013-04-02 19:52:00,66.0,21.0,-100.00,SE,134,3.0,9.0,18,0.00,,,0.00,156.000000,,2013-04-03 01:52:00,
2013-04-02 20:23:00,61.0,21.0,-100.00,East,88,6.0,7.0,21,0.00,,,0.00,18.000000,,2013-04-03 02:23:00,
2013-04-02 20:43:00,61.0,21.0,-100.00,East,88,6.0,7.0,21,0.00,,,0.00,18.000000,,2013-04-03 02:43:00,
2013-04-02 20:52:00,61.0,21.0,-100.00,East,88,6.0,7.0,21,0.00,,,0.00,18.000000,,2013-04-03 02:52:00,
2013-04-02 21:22:00,51.0,16.0,-100.00,SE,141,6.0,10.0,24,0.00,,,0.00,0.000000,,2013-04-03 03:22:00,
2013-04-02 21:35:00,51.0,16.0,-100.00,SE,141,6.0,10.0,24,0.00,,,0.00,0.000000,,2013-04-03 03:35:00,
2013-04-02 21:43:00,51.0,16.0,-100.00,SE,141,6.0,10.0,24,0.00,,,0.00,0.000000,,2013-04-03 03:43:00,
2013-04-02 21:53:00,51.0,16.0,-100.00,SE,141,6.0,10.0,24,0.00,,,0.00,0.000000,,2013-04-03 03:53:00,
2013-04-02 22:23:00,47.0,22.0,-100.00,SE,135,8.0,11.0,37,0.00,,,-99.99,0.000000,,2013-04-03 04:23:00,
2013-04-02 22:32:00,47.0,22.0,-100.00,SE,135,8.0,11.0,37,0.00,,,-99.99,0.000000,,2013-04-03 04:32:00,
2013-04-02 22:42:00,47.0,22.0,-100.00,SE,135,8.0,11.0,37,0.00,,,-99.99,0.000000,,2013-04-03 04:42:00,
2013-04-02 22:53:00,47.0,22.0,-100.00,SE,135,8.0,11.0,37,0.00,,,-99.99,0.000000,,2013-04-03 04:53:00,
2013-04-02 23:32:00,46.0,25.0,-100.00,SE,138,8.0,10.0,43,0.00,,,0.00,0.000000,,2013-04-03 05:32:00,
2013-04-02 23:42:00,46.0,25.0,-100.00,SE,138,8.0,10.0,43,0.00,,,0.00,0.000000,,2013-04-03 05:42:00,
2013-04-02 23:52:00,46.0,25.0,-100.00,SE,138,8.0,10.0,43,0.00,,,0.00,0.000000,,2013-04-03 05:52:00,